sensor_id;sensor_type;location;lat;lon;timestamp;P1;durP1;ratioP1;P2;durP2;ratioP2
74512;SDS011;62992;52.052;8.550;2023-01-25T00:01:02;17.15;;;8.48;;
74512;SDS011;62992;52.052;8.550;2023-01-25T00:03:48;13.32;;;6.82;;
74512;SDS011;62992;52.052;8.550;2023-01-25T00:06:32;17.73;;;8.68;;
74512;SDS011;62992;52.052;8.550;2023-01-25T00:09:16;15.95;;;8.52;;
74512;SDS011;62992;52.052;8.550;2023-01-25T00:12:01;15.52;;;8.48;;
74512;SDS011;62992;52.052;8.550;2023-01-25T00:14:45;14.48;;;8.05;;
74512;SDS011;62992;52.052;8.550;2023-01-25T00:17:29;13.57;;;8.27;;
74512;SDS011;62992;52.052;8.550;2023-01-25T00:20:13;15.90;;;8.18;;
74512;SDS011;62992;52.052;8.550;2023-01-25T00:22:58;17.63;;;8.82;;
74512;SDS011;62992;52.052;8.550;2023-01-25T00:25:42;16.92;;;8.75;;
74512;SDS011;62992;52.052;8.550;2023-01-25T00:28:26;10.65;;;6.13;;
74512;SDS011;62992;52.052;8.550;2023-01-25T00:31:10;15.73;;;8.07;;
74512;SDS011;62992;52.052;8.550;2023-01-25T00:37:29;15.07;;;8.38;;
74512;SDS011;62992;52.052;8.550;2023-01-25T00:40:26;13.88;;;7.57;;
74512;SDS011;62992;52.052;8.550;2023-01-25T00:43:10;15.73;;;8.13;;
74512;SDS011;62992;52.052;8.550;2023-01-25T00:46:00;17.73;;;8.38;;
74512;SDS011;62992;52.052;8.550;2023-01-25T00:48:44;19.08;;;9.43;;
74512;SDS011;62992;52.052;8.550;2023-01-25T00:51:28;17.45;;;8.63;;
74512;SDS011;62992;52.052;8.550;2023-01-25T00:54:12;16.90;;;8.57;;
74512;SDS011;62992;52.052;8.550;2023-01-25T00:56:56;20.10;;;8.95;;
74512;SDS011;62992;52.052;8.550;2023-01-25T00:59:40;14.95;;;8.45;;
74512;SDS011;62992;52.052;8.550;2023-01-25T01:02:26;17.13;;;8.52;;
74512;SDS011;62992;52.052;8.550;2023-01-25T01:05:13;15.52;;;7.82;;
74512;SDS011;62992;52.052;8.550;2023-01-25T01:07:58;17.80;;;8.93;;
74512;SDS011;62992;52.052;8.550;2023-01-25T01:10:42;14.20;;;7.30;;
74512;SDS011;62992;52.052;8.550;2023-01-25T01:13:26;16.52;;;7.57;;
74512;SDS011;62992;52.052;8.550;2023-01-25T01:16:12;13.00;;;7.85;;
74512;SDS011;62992;52.052;8.550;2023-01-25T01:18:56;15.90;;;8.15;;
74512;SDS011;62992;52.052;8.550;2023-01-25T01:21:40;17.00;;;7.88;;
74512;SDS011;62992;52.052;8.550;2023-01-25T01:24:24;12.75;;;7.60;;
74512;SDS011;62992;52.052;8.550;2023-01-25T01:27:09;15.48;;;7.63;;
74512;SDS011;62992;52.052;8.550;2023-01-25T01:29:53;15.93;;;8.65;;
74512;SDS011;62992;52.052;8.550;2023-01-25T01:32:37;14.55;;;7.85;;
74512;SDS011;62992;52.052;8.550;2023-01-25T01:35:21;13.73;;;7.50;;
74512;SDS011;62992;52.052;8.550;2023-01-25T01:38:05;16.17;;;7.90;;
74512;SDS011;62992;52.052;8.550;2023-01-25T01:40:49;17.17;;;8.00;;
74512;SDS011;62992;52.052;8.550;2023-01-25T01:43:33;15.45;;;8.85;;
74512;SDS011;62992;52.052;8.550;2023-01-25T01:49:16;15.88;;;8.13;;
74512;SDS011;62992;52.052;8.550;2023-01-25T01:52:09;18.17;;;9.20;;
74512;SDS011;62992;52.052;8.550;2023-01-25T01:55:15;16.02;;;8.05;;
74512;SDS011;62992;52.052;8.550;2023-01-25T01:58:05;13.88;;;6.22;;
74512;SDS011;62992;52.052;8.550;2023-01-25T02:00:50;18.55;;;9.00;;
74512;SDS011;62992;52.052;8.550;2023-01-25T02:03:34;15.90;;;8.70;;
74512;SDS011;62992;52.052;8.550;2023-01-25T02:06:21;16.25;;;8.18;;
74512;SDS011;62992;52.052;8.550;2023-01-25T02:09:11;17.58;;;9.48;;
74512;SDS011;62992;52.052;8.550;2023-01-25T02:11:58;14.70;;;7.88;;
74512;SDS011;62992;52.052;8.550;2023-01-25T02:14:47;15.55;;;8.27;;
74512;SDS011;62992;52.052;8.550;2023-01-25T02:17:33;14.82;;;8.45;;
74512;SDS011;62992;52.052;8.550;2023-01-25T02:20:25;15.57;;;8.52;;
74512;SDS011;62992;52.052;8.550;2023-01-25T02:23:26;15.50;;;8.57;;
74512;SDS011;62992;52.052;8.550;2023-01-25T02:26:12;15.93;;;7.72;;
74512;SDS011;62992;52.052;8.550;2023-01-25T02:29:02;17.67;;;7.82;;
74512;SDS011;62992;52.052;8.550;2023-01-25T02:31:48;16.15;;;8.02;;
74512;SDS011;62992;52.052;8.550;2023-01-25T02:34:35;12.40;;;7.13;;
74512;SDS011;62992;52.052;8.550;2023-01-25T02:37:18;14.00;;;6.90;;
74512;SDS011;62992;52.052;8.550;2023-01-25T02:40:02;12.98;;;6.80;;
74512;SDS011;62992;52.052;8.550;2023-01-25T02:42:48;14.48;;;7.22;;
74512;SDS011;62992;52.052;8.550;2023-01-25T02:45:32;14.20;;;7.22;;
74512;SDS011;62992;52.052;8.550;2023-01-25T02:48:16;17.42;;;7.18;;
74512;SDS011;62992;52.052;8.550;2023-01-25T02:51:00;13.07;;;7.63;;
74512;SDS011;62992;52.052;8.550;2023-01-25T02:53:44;13.18;;;6.60;;
74512;SDS011;62992;52.052;8.550;2023-01-25T02:56:28;12.38;;;6.00;;
74512;SDS011;62992;52.052;8.550;2023-01-25T02:59:13;16.65;;;7.25;;
74512;SDS011;62992;52.052;8.550;2023-01-25T03:01:57;14.10;;;6.90;;
74512;SDS011;62992;52.052;8.550;2023-01-25T03:04:41;15.15;;;7.25;;
74512;SDS011;62992;52.052;8.550;2023-01-25T03:07:25;12.80;;;6.72;;
74512;SDS011;62992;52.052;8.550;2023-01-25T03:10:09;15.05;;;7.25;;
74512;SDS011;62992;52.052;8.550;2023-01-25T03:12:53;16.25;;;7.28;;
74512;SDS011;62992;52.052;8.550;2023-01-25T03:15:37;17.40;;;7.50;;
74512;SDS011;62992;52.052;8.550;2023-01-25T03:18:21;18.33;;;7.78;;
74512;SDS011;62992;52.052;8.550;2023-01-25T03:23:58;16.95;;;7.05;;
74512;SDS011;62992;52.052;8.550;2023-01-25T03:26:44;17.10;;;7.18;;
74512;SDS011;62992;52.052;8.550;2023-01-25T03:29:46;13.75;;;7.45;;
74512;SDS011;62992;52.052;8.550;2023-01-25T03:32:30;12.95;;;6.85;;
74512;SDS011;62992;52.052;8.550;2023-01-25T03:35:15;14.85;;;7.28;;
74512;SDS011;62992;52.052;8.550;2023-01-25T03:37:59;13.23;;;5.70;;
74512;SDS011;62992;52.052;8.550;2023-01-25T03:40:43;12.80;;;6.75;;
74512;SDS011;62992;52.052;8.550;2023-01-25T03:43:27;14.90;;;7.55;;
74512;SDS011;62992;52.052;8.550;2023-01-25T03:46:12;11.27;;;6.60;;
74512;SDS011;62992;52.052;8.550;2023-01-25T03:48:56;14.27;;;7.35;;
74512;SDS011;62992;52.052;8.550;2023-01-25T03:51:40;13.07;;;5.93;;
74512;SDS011;62992;52.052;8.550;2023-01-25T03:54:24;18.45;;;7.32;;
74512;SDS011;62992;52.052;8.550;2023-01-25T03:57:08;12.93;;;6.40;;
74512;SDS011;62992;52.052;8.550;2023-01-25T03:59:52;13.82;;;6.40;;
74512;SDS011;62992;52.052;8.550;2023-01-25T04:02:36;12.48;;;6.50;;
74512;SDS011;62992;52.052;8.550;2023-01-25T04:05:20;11.10;;;5.55;;
74512;SDS011;62992;52.052;8.550;2023-01-25T04:08:04;12.23;;;5.72;;
74512;SDS011;62992;52.052;8.550;2023-01-25T04:10:51;12.82;;;6.10;;
74512;SDS011;62992;52.052;8.550;2023-01-25T04:13:37;13.75;;;6.72;;
74512;SDS011;62992;52.052;8.550;2023-01-25T04:16:21;12.18;;;5.60;;
74512;SDS011;62992;52.052;8.550;2023-01-25T04:19:06;15.15;;;6.65;;
74512;SDS011;62992;52.052;8.550;2023-01-25T04:21:50;13.98;;;6.90;;
74512;SDS011;62992;52.052;8.550;2023-01-25T04:24:34;14.48;;;7.18;;
74512;SDS011;62992;52.052;8.550;2023-01-25T04:27:18;15.73;;;7.07;;
74512;SDS011;62992;52.052;8.550;2023-01-25T04:30:02;13.50;;;6.70;;
74512;SDS011;62992;52.052;8.550;2023-01-25T04:32:47;17.65;;;7.70;;
74512;SDS011;62992;52.052;8.550;2023-01-25T04:35:31;14.95;;;7.28;;
74512;SDS011;62992;52.052;8.550;2023-01-25T04:38:15;17.77;;;7.15;;
74512;SDS011;62992;52.052;8.550;2023-01-25T04:41:00;14.95;;;6.72;;
74512;SDS011;62992;52.052;8.550;2023-01-25T04:43:44;19.25;;;7.45;;
74512;SDS011;62992;52.052;8.550;2023-01-25T04:46:28;17.00;;;7.70;;
74512;SDS011;62992;52.052;8.550;2023-01-25T04:49:12;17.95;;;7.43;;
74512;SDS011;62992;52.052;8.550;2023-01-25T04:51:56;19.20;;;8.50;;
74512;SDS011;62992;52.052;8.550;2023-01-25T04:54:40;16.23;;;7.50;;
74512;SDS011;62992;52.052;8.550;2023-01-25T04:57:24;17.77;;;7.10;;
74512;SDS011;62992;52.052;8.550;2023-01-25T05:00:08;21.27;;;8.57;;
74512;SDS011;62992;52.052;8.550;2023-01-25T05:02:53;19.63;;;7.75;;
74512;SDS011;62992;52.052;8.550;2023-01-25T05:05:38;18.83;;;8.43;;
74512;SDS011;62992;52.052;8.550;2023-01-25T05:08:22;19.75;;;8.57;;
74512;SDS011;62992;52.052;8.550;2023-01-25T05:11:06;21.45;;;8.77;;
74512;SDS011;62992;52.052;8.550;2023-01-25T05:13:50;19.17;;;8.40;;
74512;SDS011;62992;52.052;8.550;2023-01-25T05:16:34;22.27;;;9.25;;
74512;SDS011;62992;52.052;8.550;2023-01-25T05:19:18;23.23;;;9.40;;
74512;SDS011;62992;52.052;8.550;2023-01-25T05:22:02;20.67;;;8.80;;
74512;SDS011;62992;52.052;8.550;2023-01-25T05:24:50;19.52;;;8.57;;
74512;SDS011;62992;52.052;8.550;2023-01-25T05:27:34;21.75;;;10.05;;
74512;SDS011;62992;52.052;8.550;2023-01-25T05:30:18;21.00;;;9.05;;
74512;SDS011;62992;52.052;8.550;2023-01-25T05:33:03;21.48;;;9.18;;
74512;SDS011;62992;52.052;8.550;2023-01-25T05:35:47;20.15;;;9.45;;
74512;SDS011;62992;52.052;8.550;2023-01-25T05:38:31;22.77;;;9.88;;
74512;SDS011;62992;52.052;8.550;2023-01-25T05:41:15;22.95;;;9.85;;
74512;SDS011;62992;52.052;8.550;2023-01-25T05:43:59;19.80;;;10.25;;
74512;SDS011;62992;52.052;8.550;2023-01-25T05:46:43;25.08;;;9.57;;
74512;SDS011;62992;52.052;8.550;2023-01-25T05:49:27;34.97;;;10.38;;
74512;SDS011;62992;52.052;8.550;2023-01-25T05:52:15;23.48;;;9.45;;
74512;SDS011;62992;52.052;8.550;2023-01-25T05:54:59;23.27;;;9.65;;
74512;SDS011;62992;52.052;8.550;2023-01-25T05:57:43;24.15;;;10.13;;
74512;SDS011;62992;52.052;8.550;2023-01-25T06:00:27;22.52;;;9.82;;
74512;SDS011;62992;52.052;8.550;2023-01-25T06:03:11;23.50;;;10.57;;
74512;SDS011;62992;52.052;8.550;2023-01-25T06:05:56;23.90;;;9.90;;
74512;SDS011;62992;52.052;8.550;2023-01-25T06:11:26;22.10;;;8.55;;
74512;SDS011;62992;52.052;8.550;2023-01-25T06:14:10;20.50;;;8.18;;
74512;SDS011;62992;52.052;8.550;2023-01-25T06:16:54;21.50;;;8.65;;
74512;SDS011;62992;52.052;8.550;2023-01-25T06:19:38;20.30;;;9.05;;
74512;SDS011;62992;52.052;8.550;2023-01-25T06:22:22;22.80;;;8.73;;
74512;SDS011;62992;52.052;8.550;2023-01-25T06:25:07;26.90;;;10.30;;
74512;SDS011;62992;52.052;8.550;2023-01-25T06:27:53;22.38;;;9.23;;
74512;SDS011;62992;52.052;8.550;2023-01-25T06:30:37;22.90;;;10.05;;
74512;SDS011;62992;52.052;8.550;2023-01-25T06:33:21;24.30;;;9.82;;
74512;SDS011;62992;52.052;8.550;2023-01-25T06:36:06;24.13;;;10.82;;
74512;SDS011;62992;52.052;8.550;2023-01-25T06:38:55;21.42;;;9.40;;
74512;SDS011;62992;52.052;8.550;2023-01-25T06:41:39;25.13;;;10.38;;
74512;SDS011;62992;52.052;8.550;2023-01-25T06:44:23;24.92;;;9.85;;
74512;SDS011;62992;52.052;8.550;2023-01-25T06:47:07;25.17;;;9.90;;
74512;SDS011;62992;52.052;8.550;2023-01-25T06:49:52;25.60;;;10.27;;
74512;SDS011;62992;52.052;8.550;2023-01-25T06:52:36;23.77;;;9.70;;
74512;SDS011;62992;52.052;8.550;2023-01-25T06:55:21;22.95;;;9.65;;
74512;SDS011;62992;52.052;8.550;2023-01-25T06:58:05;22.55;;;9.48;;
74512;SDS011;62992;52.052;8.550;2023-01-25T07:00:49;22.08;;;9.25;;
74512;SDS011;62992;52.052;8.550;2023-01-25T07:03:33;25.88;;;11.02;;
74512;SDS011;62992;52.052;8.550;2023-01-25T07:06:17;24.83;;;10.90;;
74512;SDS011;62992;52.052;8.550;2023-01-25T07:09:03;27.55;;;9.82;;
74512;SDS011;62992;52.052;8.550;2023-01-25T07:11:51;26.67;;;9.48;;
74512;SDS011;62992;52.052;8.550;2023-01-25T07:14:36;29.38;;;10.18;;
74512;SDS011;62992;52.052;8.550;2023-01-25T07:17:20;25.80;;;10.02;;
74512;SDS011;62992;52.052;8.550;2023-01-25T07:20:04;26.15;;;10.27;;
74512;SDS011;62992;52.052;8.550;2023-01-25T07:22:48;26.10;;;9.45;;
74512;SDS011;62992;52.052;8.550;2023-01-25T07:25:33;30.33;;;12.00;;
74512;SDS011;62992;52.052;8.550;2023-01-25T07:28:17;24.48;;;10.30;;
74512;SDS011;62992;52.052;8.550;2023-01-25T07:31:05;28.08;;;10.80;;
74512;SDS011;62992;52.052;8.550;2023-01-25T07:33:50;27.45;;;10.57;;
74512;SDS011;62992;52.052;8.550;2023-01-25T07:36:36;29.35;;;11.38;;
74512;SDS011;62992;52.052;8.550;2023-01-25T07:39:20;28.33;;;11.65;;
74512;SDS011;62992;52.052;8.550;2023-01-25T07:42:04;28.75;;;11.10;;
74512;SDS011;62992;52.052;8.550;2023-01-25T07:44:48;27.88;;;10.55;;
74512;SDS011;62992;52.052;8.550;2023-01-25T07:47:32;26.55;;;10.27;;
74512;SDS011;62992;52.052;8.550;2023-01-25T07:50:16;26.80;;;10.18;;
74512;SDS011;62992;52.052;8.550;2023-01-25T07:53:00;27.20;;;10.80;;
74512;SDS011;62992;52.052;8.550;2023-01-25T07:55:45;25.73;;;9.68;;
74512;SDS011;62992;52.052;8.550;2023-01-25T07:58:29;28.77;;;11.15;;
74512;SDS011;62992;52.052;8.550;2023-01-25T08:01:14;28.40;;;11.20;;
74512;SDS011;62992;52.052;8.550;2023-01-25T08:04:01;31.35;;;11.23;;
74512;SDS011;62992;52.052;8.550;2023-01-25T08:06:47;32.75;;;11.10;;
74512;SDS011;62992;52.052;8.550;2023-01-25T08:09:31;26.35;;;10.60;;
74512;SDS011;62992;52.052;8.550;2023-01-25T08:12:16;29.65;;;10.77;;
74512;SDS011;62992;52.052;8.550;2023-01-25T08:15:01;31.23;;;11.77;;
74512;SDS011;62992;52.052;8.550;2023-01-25T08:17:45;32.80;;;11.32;;
74512;SDS011;62992;52.052;8.550;2023-01-25T08:20:30;29.48;;;11.20;;
74512;SDS011;62992;52.052;8.550;2023-01-25T08:23:14;33.40;;;12.57;;
74512;SDS011;62992;52.052;8.550;2023-01-25T08:26:05;31.17;;;11.25;;
74512;SDS011;62992;52.052;8.550;2023-01-25T08:28:55;29.95;;;11.70;;
74512;SDS011;62992;52.052;8.550;2023-01-25T08:31:40;28.63;;;11.43;;
74512;SDS011;62992;52.052;8.550;2023-01-25T08:34:26;32.03;;;11.25;;
74512;SDS011;62992;52.052;8.550;2023-01-25T08:37:13;29.35;;;11.77;;
74512;SDS011;62992;52.052;8.550;2023-01-25T08:39:58;29.17;;;11.45;;
74512;SDS011;62992;52.052;8.550;2023-01-25T08:42:42;27.88;;;10.63;;
74512;SDS011;62992;52.052;8.550;2023-01-25T08:45:26;32.95;;;12.27;;
74512;SDS011;62992;52.052;8.550;2023-01-25T08:48:10;28.85;;;10.95;;
74512;SDS011;62992;52.052;8.550;2023-01-25T08:50:58;31.77;;;11.60;;
74512;SDS011;62992;52.052;8.550;2023-01-25T08:53:42;28.75;;;10.93;;
74512;SDS011;62992;52.052;8.550;2023-01-25T08:56:26;27.58;;;10.60;;
74512;SDS011;62992;52.052;8.550;2023-01-25T08:59:11;26.75;;;10.95;;
74512;SDS011;62992;52.052;8.550;2023-01-25T09:01:56;31.60;;;12.52;;
74512;SDS011;62992;52.052;8.550;2023-01-25T09:04:40;31.45;;;11.75;;
74512;SDS011;62992;52.052;8.550;2023-01-25T09:07:24;31.30;;;11.15;;
74512;SDS011;62992;52.052;8.550;2023-01-25T09:10:09;34.55;;;12.63;;
74512;SDS011;62992;52.052;8.550;2023-01-25T09:12:53;31.55;;;10.93;;
74512;SDS011;62992;52.052;8.550;2023-01-25T09:15:37;30.85;;;12.13;;
74512;SDS011;62992;52.052;8.550;2023-01-25T09:18:21;30.60;;;11.60;;
74512;SDS011;62992;52.052;8.550;2023-01-25T09:21:06;30.08;;;11.52;;
74512;SDS011;62992;52.052;8.550;2023-01-25T09:23:52;32.22;;;11.82;;
74512;SDS011;62992;52.052;8.550;2023-01-25T09:26:38;31.27;;;10.90;;
74512;SDS011;62992;52.052;8.550;2023-01-25T09:29:24;31.65;;;11.40;;
74512;SDS011;62992;52.052;8.550;2023-01-25T09:32:08;30.73;;;11.23;;
74512;SDS011;62992;52.052;8.550;2023-01-25T09:34:53;35.00;;;12.40;;
74512;SDS011;62992;52.052;8.550;2023-01-25T09:37:37;26.88;;;9.80;;
74512;SDS011;62992;52.052;8.550;2023-01-25T09:40:21;27.70;;;10.07;;
74512;SDS011;62992;52.052;8.550;2023-01-25T09:43:24;26.45;;;11.15;;
74512;SDS011;62992;52.052;8.550;2023-01-25T09:46:39;31.20;;;10.50;;
74512;SDS011;62992;52.052;8.550;2023-01-25T09:55:37;24.33;;;10.73;;
74512;SDS011;62992;52.052;8.550;2023-01-25T09:58:32;31.65;;;12.02;;
74512;SDS011;62992;52.052;8.550;2023-01-25T10:04:32;26.23;;;10.18;;
74512;SDS011;62992;52.052;8.550;2023-01-25T10:07:28;29.35;;;10.43;;
74512;SDS011;62992;52.052;8.550;2023-01-25T10:13:20;31.05;;;10.77;;
74512;SDS011;62992;52.052;8.550;2023-01-25T10:16:10;34.45;;;12.30;;
74512;SDS011;62992;52.052;8.550;2023-01-25T10:22:19;29.52;;;12.30;;
74512;SDS011;62992;52.052;8.550;2023-01-25T10:25:22;38.65;;;13.80;;
74512;SDS011;62992;52.052;8.550;2023-01-25T10:30:59;33.70;;;11.35;;
74512;SDS011;62992;52.052;8.550;2023-01-25T10:33:54;37.92;;;13.57;;
74512;SDS011;62992;52.052;8.550;2023-01-25T10:36:39;32.20;;;11.93;;
74512;SDS011;62992;52.052;8.550;2023-01-25T10:39:24;33.03;;;12.70;;
74512;SDS011;62992;52.052;8.550;2023-01-25T10:42:10;34.58;;;12.50;;
74512;SDS011;62992;52.052;8.550;2023-01-25T10:44:56;33.38;;;11.57;;
74512;SDS011;62992;52.052;8.550;2023-01-25T10:47:41;37.00;;;13.35;;
74512;SDS011;62992;52.052;8.550;2023-01-25T10:53:33;30.60;;;11.05;;
74512;SDS011;62992;52.052;8.550;2023-01-25T10:56:23;30.02;;;11.57;;
74512;SDS011;62992;52.052;8.550;2023-01-25T10:59:24;32.97;;;11.80;;
74512;SDS011;62992;52.052;8.550;2023-01-25T11:02:33;35.35;;;12.55;;
74512;SDS011;62992;52.052;8.550;2023-01-25T11:08:21;30.33;;;11.20;;
74512;SDS011;62992;52.052;8.550;2023-01-25T11:11:34;31.73;;;11.45;;
74512;SDS011;62992;52.052;8.550;2023-01-25T11:14:20;30.17;;;11.00;;
74512;SDS011;62992;52.052;8.550;2023-01-25T11:17:09;37.05;;;11.50;;
74512;SDS011;62992;52.052;8.550;2023-01-25T11:23:01;30.90;;;9.82;;
74512;SDS011;62992;52.052;8.550;2023-01-25T11:25:45;35.30;;;10.35;;
74512;SDS011;62992;52.052;8.550;2023-01-25T11:28:29;33.42;;;11.32;;
74512;SDS011;62992;52.052;8.550;2023-01-25T11:31:15;30.88;;;11.35;;
74512;SDS011;62992;52.052;8.550;2023-01-25T11:34:07;27.83;;;9.48;;
74512;SDS011;62992;52.052;8.550;2023-01-25T11:40:19;28.00;;;10.63;;
74512;SDS011;62992;52.052;8.550;2023-01-25T11:52:23;25.25;;;8.50;;
74512;SDS011;62992;52.052;8.550;2023-01-25T12:14:23;17.75;;;7.20;;
74512;SDS011;62992;52.052;8.550;2023-01-25T12:17:54;20.45;;;7.80;;
74512;SDS011;62992;52.052;8.550;2023-01-25T12:30:22;21.10;;;7.60;;
74512;SDS011;62992;52.052;8.550;2023-01-25T12:36:31;21.20;;;7.88;;
74512;SDS011;62992;52.052;8.550;2023-01-25T12:40:08;16.98;;;6.72;;
74512;SDS011;62992;52.052;8.550;2023-01-25T12:42:49;18.33;;;7.45;;
74512;SDS011;62992;52.052;8.550;2023-01-25T12:45:38;15.45;;;6.90;;
74512;SDS011;62992;52.052;8.550;2023-01-25T12:48:31;17.02;;;7.15;;
74512;SDS011;62992;52.052;8.550;2023-01-25T12:51:19;17.15;;;6.68;;
74512;SDS011;62992;52.052;8.550;2023-01-25T12:54:16;20.88;;;7.88;;
74512;SDS011;62992;52.052;8.550;2023-01-25T12:57:18;20.45;;;8.25;;
74512;SDS011;62992;52.052;8.550;2023-01-25T13:06:23;19.85;;;8.43;;
74512;SDS011;62992;52.052;8.550;2023-01-25T13:09:21;22.20;;;8.20;;
74512;SDS011;62992;52.052;8.550;2023-01-25T13:12:09;26.13;;;11.13;;
74512;SDS011;62992;52.052;8.550;2023-01-25T13:14:55;26.67;;;10.45;;
74512;SDS011;62992;52.052;8.550;2023-01-25T13:17:39;23.63;;;8.50;;
74512;SDS011;62992;52.052;8.550;2023-01-25T13:23:38;28.48;;;8.80;;
74512;SDS011;62992;52.052;8.550;2023-01-25T13:26:35;30.95;;;11.48;;
74512;SDS011;62992;52.052;8.550;2023-01-25T13:32:51;26.30;;;9.23;;
74512;SDS011;62992;52.052;8.550;2023-01-25T13:35:26;27.67;;;10.05;;
74512;SDS011;62992;52.052;8.550;2023-01-25T13:41:05;30.70;;;10.85;;
74512;SDS011;62992;52.052;8.550;2023-01-25T13:44:07;25.98;;;9.13;;
74512;SDS011;62992;52.052;8.550;2023-01-25T13:47:03;32.88;;;11.15;;
74512;SDS011;62992;52.052;8.550;2023-01-25T13:50:07;26.70;;;10.73;;
74512;SDS011;62992;52.052;8.550;2023-01-25T13:55:57;28.35;;;10.70;;
74512;SDS011;62992;52.052;8.550;2023-01-25T13:58:45;29.50;;;11.40;;
74512;SDS011;62992;52.052;8.550;2023-01-25T14:01:31;30.60;;;10.40;;
74512;SDS011;62992;52.052;8.550;2023-01-25T14:04:18;29.80;;;11.00;;
74512;SDS011;62992;52.052;8.550;2023-01-25T14:07:02;28.58;;;10.30;;
74512;SDS011;62992;52.052;8.550;2023-01-25T14:09:52;29.52;;;10.48;;
74512;SDS011;62992;52.052;8.550;2023-01-25T14:12:37;33.55;;;11.60;;
74512;SDS011;62992;52.052;8.550;2023-01-25T14:15:28;29.02;;;9.75;;
74512;SDS011;62992;52.052;8.550;2023-01-25T14:18:18;28.67;;;10.52;;
74512;SDS011;62992;52.052;8.550;2023-01-25T14:21:36;27.10;;;8.88;;
74512;SDS011;62992;52.052;8.550;2023-01-25T14:24:15;23.63;;;8.82;;
74512;SDS011;62992;52.052;8.550;2023-01-25T14:27:02;25.27;;;8.85;;
74512;SDS011;62992;52.052;8.550;2023-01-25T14:29:48;26.58;;;9.75;;
74512;SDS011;62992;52.052;8.550;2023-01-25T14:32:32;25.23;;;9.43;;
74512;SDS011;62992;52.052;8.550;2023-01-25T14:43:50;22.30;;;8.93;;
74512;SDS011;62992;52.052;8.550;2023-01-25T14:46:37;23.83;;;8.13;;
74512;SDS011;62992;52.052;8.550;2023-01-25T14:49:22;24.27;;;8.15;;
74512;SDS011;62992;52.052;8.550;2023-01-25T14:52:14;29.30;;;10.43;;
74512;SDS011;62992;52.052;8.550;2023-01-25T14:55:01;28.42;;;10.70;;
74512;SDS011;62992;52.052;8.550;2023-01-25T14:57:45;26.08;;;9.32;;
74512;SDS011;62992;52.052;8.550;2023-01-25T15:00:32;26.23;;;9.57;;
74512;SDS011;62992;52.052;8.550;2023-01-25T15:03:17;28.85;;;10.02;;
74512;SDS011;62992;52.052;8.550;2023-01-25T15:06:02;29.05;;;10.32;;
74512;SDS011;62992;52.052;8.550;2023-01-25T15:08:47;23.48;;;8.63;;
74512;SDS011;62992;52.052;8.550;2023-01-25T15:11:32;24.77;;;9.55;;
74512;SDS011;62992;52.052;8.550;2023-01-25T15:17:34;25.52;;;9.45;;
74512;SDS011;62992;52.052;8.550;2023-01-25T15:23:22;30.00;;;9.88;;
74512;SDS011;62992;52.052;8.550;2023-01-25T15:26:27;33.00;;;12.35;;
74512;SDS011;62992;52.052;8.550;2023-01-25T15:29:13;31.75;;;9.65;;
74512;SDS011;62992;52.052;8.550;2023-01-25T15:31:59;35.58;;;10.65;;
74512;SDS011;62992;52.052;8.550;2023-01-25T15:34:43;34.25;;;12.13;;
74512;SDS011;62992;52.052;8.550;2023-01-25T15:37:27;33.63;;;11.10;;
74512;SDS011;62992;52.052;8.550;2023-01-25T15:40:11;34.33;;;12.05;;
74512;SDS011;62992;52.052;8.550;2023-01-25T15:42:56;39.85;;;12.27;;
74512;SDS011;62992;52.052;8.550;2023-01-25T15:45:42;29.73;;;10.77;;
74512;SDS011;62992;52.052;8.550;2023-01-25T15:48:29;34.50;;;11.43;;
74512;SDS011;62992;52.052;8.550;2023-01-25T15:51:23;34.25;;;11.43;;
74512;SDS011;62992;52.052;8.550;2023-01-25T15:54:07;31.45;;;12.27;;
74512;SDS011;62992;52.052;8.550;2023-01-25T15:56:55;30.97;;;11.70;;
74512;SDS011;62992;52.052;8.550;2023-01-25T15:59:41;36.67;;;12.48;;
74512;SDS011;62992;52.052;8.550;2023-01-25T16:02:25;35.10;;;12.07;;
74512;SDS011;62992;52.052;8.550;2023-01-25T16:05:09;34.33;;;11.30;;
74512;SDS011;62992;52.052;8.550;2023-01-25T16:07:54;32.17;;;12.10;;
74512;SDS011;62992;52.052;8.550;2023-01-25T16:10:38;35.80;;;11.15;;
74512;SDS011;62992;52.052;8.550;2023-01-25T16:13:22;32.97;;;13.10;;
74512;SDS011;62992;52.052;8.550;2023-01-25T16:16:07;33.53;;;12.70;;
74512;SDS011;62992;52.052;8.550;2023-01-25T16:19:03;36.13;;;11.98;;
74512;SDS011;62992;52.052;8.550;2023-01-25T16:21:47;38.05;;;12.98;;
74512;SDS011;62992;52.052;8.550;2023-01-25T16:24:32;37.50;;;12.70;;
74512;SDS011;62992;52.052;8.550;2023-01-25T16:27:17;40.53;;;14.57;;
74512;SDS011;62992;52.052;8.550;2023-01-25T16:30:11;36.38;;;12.75;;
74512;SDS011;62992;52.052;8.550;2023-01-25T16:33:01;43.17;;;14.15;;
74512;SDS011;62992;52.052;8.550;2023-01-25T16:35:45;40.75;;;14.80;;
74512;SDS011;62992;52.052;8.550;2023-01-25T16:38:29;39.75;;;13.93;;
74512;SDS011;62992;52.052;8.550;2023-01-25T16:41:13;45.10;;;15.43;;
74512;SDS011;62992;52.052;8.550;2023-01-25T16:43:58;54.83;;;16.17;;
74512;SDS011;62992;52.052;8.550;2023-01-25T16:46:42;48.28;;;14.82;;
74512;SDS011;62992;52.052;8.550;2023-01-25T16:49:27;55.40;;;17.08;;
74512;SDS011;62992;52.052;8.550;2023-01-25T16:52:13;56.05;;;16.95;;
74512;SDS011;62992;52.052;8.550;2023-01-25T16:54:57;53.72;;;17.42;;
74512;SDS011;62992;52.052;8.550;2023-01-25T16:57:42;55.97;;;18.75;;
74512;SDS011;62992;52.052;8.550;2023-01-25T17:00:27;52.90;;;17.38;;
74512;SDS011;62992;52.052;8.550;2023-01-25T17:03:11;67.97;;;19.70;;
74512;SDS011;62992;52.052;8.550;2023-01-25T17:05:55;59.40;;;20.30;;
74512;SDS011;62992;52.052;8.550;2023-01-25T17:08:40;57.38;;;19.60;;
74512;SDS011;62992;52.052;8.550;2023-01-25T17:11:24;72.53;;;21.42;;
74512;SDS011;62992;52.052;8.550;2023-01-25T17:14:10;69.72;;;22.00;;
74512;SDS011;62992;52.052;8.550;2023-01-25T17:16:57;66.00;;;21.50;;
74512;SDS011;62992;52.052;8.550;2023-01-25T17:19:41;77.90;;;24.65;;
74512;SDS011;62992;52.052;8.550;2023-01-25T17:22:25;68.20;;;23.17;;
74512;SDS011;62992;52.052;8.550;2023-01-25T17:25:09;78.43;;;22.00;;
74512;SDS011;62992;52.052;8.550;2023-01-25T17:27:53;74.53;;;22.98;;
74512;SDS011;62992;52.052;8.550;2023-01-25T17:30:38;79.68;;;23.40;;
74512;SDS011;62992;52.052;8.550;2023-01-25T17:33:23;77.45;;;21.05;;
74512;SDS011;62992;52.052;8.550;2023-01-25T17:36:08;81.18;;;24.70;;
74512;SDS011;62992;52.052;8.550;2023-01-25T17:38:52;78.55;;;22.52;;
74512;SDS011;62992;52.052;8.550;2023-01-25T17:41:36;90.18;;;26.00;;
74512;SDS011;62992;52.052;8.550;2023-01-25T17:44:21;90.18;;;25.92;;
74512;SDS011;62992;52.052;8.550;2023-01-25T17:47:07;83.38;;;25.08;;
74512;SDS011;62992;52.052;8.550;2023-01-25T17:49:51;88.35;;;24.05;;
74512;SDS011;62992;52.052;8.550;2023-01-25T17:52:35;85.40;;;28.77;;
74512;SDS011;62992;52.052;8.550;2023-01-25T17:55:19;95.05;;;28.75;;
74512;SDS011;62992;52.052;8.550;2023-01-25T17:58:04;171.57;;;55.47;;
74512;SDS011;62992;52.052;8.550;2023-01-25T18:00:48;96.05;;;33.95;;
74512;SDS011;62992;52.052;8.550;2023-01-25T18:03:33;88.38;;;28.27;;
74512;SDS011;62992;52.052;8.550;2023-01-25T18:06:18;94.50;;;28.38;;
74512;SDS011;62992;52.052;8.550;2023-01-25T18:09:04;85.30;;;26.70;;
74512;SDS011;62992;52.052;8.550;2023-01-25T18:11:51;70.13;;;24.10;;
74512;SDS011;62992;52.052;8.550;2023-01-25T18:14:35;82.00;;;25.48;;
74512;SDS011;62992;52.052;8.550;2023-01-25T18:17:19;87.57;;;25.45;;
74512;SDS011;62992;52.052;8.550;2023-01-25T18:20:04;80.28;;;25.23;;